Barksdale Air Force Base Bossier City US
ICAO: KBAD
IATA: BAD
Category: Large
Scheduled Services: No

Elevation: 166 ft
TransAlt. 18000 ft.

Airport Communications:
SHREVEPORT APP/DEP:119.9
ATIS:37.58
GND:121.8
PMSV METRO:37.362
COMD POST:31.1
PTD:37.22
TWR:128.25

KBAD Zoom In..

If you have problems with the map follow the link
https://www.worldairports.se/pages/airport.php?
ICAO=KBAD

Runways:

(A) RW 15 length 11758 ft width 299 ft
ILS 108.90 / hdg 146

(B) RW 33 length 11758 ft width 299 ft
ILS 109.90 / hdg 326

Location; KBAD
Day. 08 / Time. 13.56 Zulu
* Altimeter: 30.12
* Temperature: 1/° c. 33.8°f.
* Wind from: 170° Speed 07 kn.
Dewpoint: V4° c.
Visibility: 2 m.
Clouds: Overcast 300 ft.
Conditions: Mist.

KBAD 081356Z AUTO 17007KT 2 1/2SM BR OVC003 08/08 A3012 RMK AO2 VIS 2 1/2V4 SLPNO T00800080


Wind From 170°
Speed 07 kn.

 
 
jpsmedia worldairports.se 2019   terms of use